createdAt,value
2022-12-17T00:00:42.327Z,-2.95
2022-12-17T00:05:17.738Z,-2.86
2022-12-17T00:09:53.527Z,-2.82
2022-12-17T00:14:31.824Z,-2.77
2022-12-17T00:19:07.423Z,-2.77
2022-12-17T00:23:42.970Z,-3.10
2022-12-17T00:28:19.208Z,-3.06
2022-12-17T00:32:54.959Z,-3.21
2022-12-17T00:37:30.538Z,-3.05
2022-12-17T00:42:05.900Z,-2.95
2022-12-17T00:46:41.574Z,-2.92
2022-12-17T00:51:17.173Z,-2.98
2022-12-17T00:55:52.728Z,-3.13
2022-12-17T01:00:29.238Z,-3.00
2022-12-17T01:05:05.345Z,-3.05
2022-12-17T01:09:40.818Z,-3.30
2022-12-17T01:14:16.487Z,-3.27
2022-12-17T01:18:52.059Z,-3.20
2022-12-17T01:23:28.066Z,-3.20
2022-12-17T01:28:07.921Z,-3.06
2022-12-17T01:32:43.535Z,-3.34
2022-12-17T01:37:18.898Z,-3.26
2022-12-17T01:41:55.129Z,-3.13
2022-12-17T01:46:32.666Z,-3.17
2022-12-17T01:51:15.330Z,-3.34
2022-12-17T01:55:51.038Z,-3.33
2022-12-17T02:00:31.361Z,-3.33
2022-12-17T02:05:06.794Z,-3.28
2022-12-17T02:10:01.781Z,-3.31
2022-12-17T02:14:37.125Z,-3.28
2022-12-17T02:19:24.831Z,-3.21
2022-12-17T02:24:25.500Z,-3.50
2022-12-17T02:29:07.367Z,-3.31
2022-12-17T02:33:43.623Z,-3.71
2022-12-17T02:38:18.983Z,-3.68
2022-12-17T02:42:55.530Z,-3.68
2022-12-17T02:47:32.849Z,-3.65
2022-12-17T02:52:09.455Z,-3.62
2022-12-17T02:56:44.834Z,-3.44
2022-12-17T03:01:21.036Z,-3.65
2022-12-17T03:05:56.929Z,-3.81
2022-12-17T03:10:32.697Z,-3.72
2022-12-17T03:15:08.317Z,-3.64
2022-12-17T03:19:43.913Z,-3.62
2022-12-17T03:24:19.386Z,-3.52
2022-12-17T03:28:54.956Z,-3.47
2022-12-17T03:33:30.570Z,-3.43
2022-12-17T03:38:06.190Z,-3.58
2022-12-17T03:42:41.572Z,-3.58
2022-12-17T03:47:17.236Z,-3.47
2022-12-17T03:51:53.029Z,-3.38
2022-12-17T03:56:28.504Z,-3.64
2022-12-17T04:01:04.118Z,-3.47
2022-12-17T04:23:20.815Z,-3.38
2022-12-17T04:27:56.634Z,-3.54
2022-12-17T04:32:35.376Z,-3.45
2022-12-17T04:37:11.360Z,-3.45
2022-12-17T04:41:47.616Z,-3.51
2022-12-17T04:46:23.181Z,-3.64
2022-12-17T04:50:59.044Z,-3.72
2022-12-17T04:55:34.733Z,-3.65
2022-12-17T05:00:10.382Z,-3.71
2022-12-17T05:04:45.975Z,-3.83
2022-12-17T05:09:22.075Z,-3.92
2022-12-17T05:13:57.704Z,-3.70
2022-12-17T05:18:33.605Z,-3.72
2022-12-17T05:23:09.187Z,-3.74
2022-12-17T05:27:45.013Z,-3.65
2022-12-17T05:32:20.416Z,-3.77
2022-12-17T05:36:56.244Z,-3.59
2022-12-17T05:41:31.962Z,-3.59
2022-12-17T05:46:08.979Z,-3.59
2022-12-17T05:50:44.770Z,-3.71
2022-12-17T05:55:20.455Z,-3.77
2022-12-17T05:59:56.031Z,-3.79
2022-12-17T06:04:32.011Z,-3.88
2022-12-17T06:09:07.430Z,-3.85
2022-12-17T06:13:44.457Z,-3.82
2022-12-17T06:18:20.097Z,-3.99
2022-12-17T06:22:55.806Z,-3.91
2022-12-17T06:27:31.477Z,-3.91
2022-12-17T06:32:07.326Z,-3.72
2022-12-17T06:36:42.964Z,-3.72
2022-12-17T06:41:27.126Z,-3.81
2022-12-17T06:46:02.779Z,-3.91
2022-12-17T06:50:38.747Z,-3.71
2022-12-17T06:55:14.608Z,-3.71
2022-12-17T06:59:50.322Z,-3.91
2022-12-17T07:04:26.342Z,-3.89
2022-12-17T07:09:01.887Z,-3.89
2022-12-17T07:13:37.983Z,-3.85
2022-12-17T07:18:19.795Z,-3.65
2022-12-17T07:22:55.632Z,-3.79
2022-12-17T07:27:31.376Z,-3.43
2022-12-17T07:32:17.574Z,-3.15
2022-12-17T07:36:53.591Z,-3.45
2022-12-17T07:41:29.346Z,-3.86
2022-12-17T07:46:05.243Z,-3.88
2022-12-17T07:50:40.775Z,-3.78
2022-12-17T07:55:18.399Z,-3.56
2022-12-17T07:59:54.106Z,-3.77
2022-12-17T08:04:30.206Z,-3.61
2022-12-17T08:09:05.921Z,-3.65
2022-12-17T08:13:41.715Z,-3.59
2022-12-17T08:18:26.781Z,-3.61
2022-12-17T08:23:02.722Z,-3.81
2022-12-17T08:27:38.407Z,-3.78
2022-12-17T08:32:14.020Z,-3.82
2022-12-17T08:36:49.849Z,-3.91
2022-12-17T08:41:25.473Z,-3.91
2022-12-17T08:46:09.765Z,-3.71
2022-12-17T08:50:45.473Z,-3.50
2022-12-17T08:55:21.256Z,-3.72
2022-12-17T08:59:56.822Z,-3.75
2022-12-17T09:04:32.633Z,-3.72
2022-12-17T09:09:08.323Z,-3.50
2022-12-17T09:13:44.060Z,-3.31
2022-12-17T09:18:19.771Z,-3.03
2022-12-17T09:22:55.691Z,-2.51
2022-12-17T09:27:31.497Z,-2.74
2022-12-17T09:32:07.321Z,-2.75
2022-12-17T09:36:48.039Z,-2.46
2022-12-17T09:41:48.409Z,-2.78
2022-12-17T09:46:52.101Z,-2.41
2022-12-17T09:51:49.360Z,-2.44
2022-12-17T09:56:28.690Z,-2.50
2022-12-17T10:01:04.803Z,-2.62
2022-12-17T10:05:45.627Z,-2.05
2022-12-17T10:10:43.837Z,-2.14
2022-12-17T10:15:20.008Z,-2.01
2022-12-17T10:20:00.905Z,-2.48
2022-12-17T10:24:37.083Z,-1.96
2022-12-17T10:29:28.220Z,-1.78
2022-12-17T10:34:04.638Z,-2.36
2022-12-17T10:38:44.578Z,-2.24
2022-12-17T10:43:20.136Z,-2.40
2022-12-17T10:48:03.170Z,-2.29
2022-12-17T10:52:50.742Z,-1.93
2022-12-17T10:57:27.714Z,-2.43
2022-12-17T11:02:03.217Z,-2.29
2022-12-17T11:06:49.935Z,-2.30
2022-12-17T11:11:31.191Z,-1.58
2022-12-17T11:16:13.356Z,-1.88
2022-12-17T11:21:33.921Z,-2.36
2022-12-17T11:26:25.221Z,-2.33
2022-12-17T11:31:13.374Z,-2.65
2022-12-17T11:36:11.245Z,-2.68
2022-12-17T11:40:57.420Z,-2.68
2022-12-17T11:45:52.544Z,-2.68
2022-12-17T11:51:11.174Z,-2.89
2022-12-17T11:56:19.516Z,-3.23
2022-12-17T12:01:20.774Z,-2.75
2022-12-17T12:06:12.462Z,-2.78
2022-12-17T12:11:09.315Z,-2.53
2022-12-17T12:16:18.727Z,-3.13
2022-12-17T12:21:24.594Z,-2.71
2022-12-17T12:26:32.797Z,-2.91
2022-12-17T12:31:19.924Z,-2.91
2022-12-17T12:35:57.144Z,-3.10
2022-12-17T12:40:53.988Z,-3.16
2022-12-17T12:45:49.935Z,-3.13
2022-12-17T12:50:41.331Z,-2.74
2022-12-17T12:55:17.082Z,-2.62
2022-12-17T12:59:54.245Z,-2.53
2022-12-17T13:04:53.556Z,-2.81
2022-12-17T13:09:16.469Z,-2.88
2022-12-17T13:13:56.319Z,-2.89
2022-12-17T13:18:37.928Z,-2.72
2022-12-17T13:23:09.358Z,-2.92
2022-12-17T13:27:33.999Z,-3.13
2022-12-17T13:32:20.785Z,-2.98
2022-12-17T13:36:55.244Z,-3.24
2022-12-17T13:41:27.760Z,-3.19
2022-12-17T13:45:44.916Z,-3.24
2022-12-17T13:50:35.655Z,-3.28
2022-12-17T13:54:54.021Z,-3.16
2022-12-17T13:59:24.213Z,-3.17
2022-12-17T14:04:06.169Z,-3.21
2022-12-17T14:08:29.397Z,-3.31
2022-12-17T14:12:47.224Z,-3.13
2022-12-17T14:17:04.822Z,-3.17
2022-12-17T14:21:22.696Z,-3.28
2022-12-17T14:25:42.978Z,-3.24
2022-12-17T14:30:00.975Z,-3.30
2022-12-17T14:34:18.071Z,-3.36
2022-12-17T14:38:39.440Z,-3.28
2022-12-17T14:43:01.724Z,-3.43
2022-12-17T14:47:32.554Z,-3.23
2022-12-17T14:51:50.483Z,-3.36
2022-12-17T14:56:23.291Z,-3.50
2022-12-17T15:00:51.042Z,-3.54
2022-12-17T15:05:16.647Z,-3.81
2022-12-17T15:09:38.163Z,-3.74
2022-12-17T15:13:56.799Z,-3.71
2022-12-17T15:18:14.613Z,-3.59
2022-12-17T15:22:31.647Z,-3.62
2022-12-17T15:26:49.476Z,-3.81
2022-12-17T15:31:06.516Z,-3.78
2022-12-17T15:35:23.830Z,-3.85
2022-12-17T15:39:40.878Z,-3.91
2022-12-17T15:43:57.969Z,-3.99
2022-12-17T15:48:21.736Z,-3.92
2022-12-17T15:52:38.907Z,-4.06
2022-12-17T15:56:56.687Z,-3.93
2022-12-17T16:01:13.825Z,-3.96
2022-12-17T16:05:31.189Z,-4.12
2022-12-17T16:09:48.067Z,-4.27
2022-12-17T16:14:05.105Z,-4.23
2022-12-17T16:18:23.651Z,-4.36
2022-12-17T16:22:40.708Z,-4.37
2022-12-17T16:27:04.058Z,-4.29
2022-12-17T16:31:21.651Z,-4.34
2022-12-17T16:35:38.545Z,-4.50
2022-12-17T16:39:59.936Z,-4.48
2022-12-17T16:44:17.371Z,-4.33
2022-12-17T16:48:39.287Z,-4.34
2022-12-17T16:52:56.545Z,-4.33
2022-12-17T16:57:13.607Z,-4.52
2022-12-17T17:01:32.127Z,-4.36
2022-12-17T17:05:49.696Z,-4.52
2022-12-17T17:10:07.064Z,-4.42
2022-12-17T17:14:24.792Z,-4.55
2022-12-17T17:18:42.184Z,-4.76
2022-12-17T17:22:59.948Z,-4.75
2022-12-17T17:27:16.817Z,-4.82
2022-12-17T17:32:08.356Z,-4.78
2022-12-17T17:36:32.608Z,-4.80
2022-12-17T17:40:56.287Z,-4.89
2022-12-17T17:45:13.243Z,-4.99
2022-12-17T17:49:30.581Z,-4.92
2022-12-17T17:53:50.199Z,-4.79
2022-12-17T17:58:07.788Z,-4.86
2022-12-17T18:02:24.781Z,-5.00
2022-12-17T18:07:16.041Z,-5.06
2022-12-17T18:11:23.962Z,-5.16
2022-12-17T18:15:41.327Z,-5.01
2022-12-17T18:19:58.540Z,-4.95
2022-12-17T18:24:22.837Z,-5.13
2022-12-17T18:28:41.282Z,-5.16
2022-12-17T18:32:58.013Z,-5.16
2022-12-17T18:37:15.194Z,-5.13
2022-12-17T18:41:50.673Z,-5.27
2022-12-17T18:46:08.085Z,-5.24
2022-12-17T18:50:24.991Z,-5.17
2022-12-17T18:54:42.187Z,-5.17
2022-12-17T18:58:59.878Z,-5.05
2022-12-17T19:03:16.797Z,-5.13
2022-12-17T19:07:34.150Z,-5.07
2022-12-17T19:11:52.414Z,-5.10
2022-12-17T19:16:19.398Z,-5.00
2022-12-17T19:20:36.317Z,-4.97
2022-12-17T19:24:53.425Z,-5.01
2022-12-17T19:29:13.016Z,-4.96
2022-12-17T19:33:30.254Z,-5.13
2022-12-17T19:37:47.187Z,-4.99
2022-12-17T19:42:04.477Z,-5.03
2022-12-17T19:46:21.891Z,-5.07
2022-12-17T19:50:39.124Z,-5.03
2022-12-17T19:54:55.965Z,-4.95
2022-12-17T19:59:14.379Z,-4.89
2022-12-17T20:03:31.226Z,-4.86
2022-12-17T20:07:49.968Z,-4.80
2022-12-17T20:12:07.032Z,-4.85
2022-12-17T20:16:24.341Z,-4.89
2022-12-17T20:20:41.243Z,-4.88
2022-12-17T20:24:58.917Z,-4.71
2022-12-17T20:29:15.962Z,-4.85
2022-12-17T20:33:33.508Z,-4.89
2022-12-17T20:37:50.371Z,-4.86
2022-12-17T20:42:07.808Z,-4.83
2022-12-17T20:46:25.687Z,-4.75
2022-12-17T20:50:43.766Z,-4.75
2022-12-17T20:55:00.640Z,-4.82
2022-12-17T20:59:19.358Z,-4.69
2022-12-17T21:03:36.860Z,-4.80
2022-12-17T21:07:54.342Z,-4.78
2022-12-17T21:12:13.530Z,-4.78
2022-12-17T21:16:31.990Z,-4.75
2022-12-17T21:20:59.061Z,-4.76
2022-12-17T21:25:16.406Z,-4.85
2022-12-17T21:29:33.362Z,-4.76
2022-12-17T21:33:54.060Z,-4.83
2022-12-17T21:38:11.291Z,-4.92
2022-12-17T21:42:47.290Z,-4.79
2022-12-17T21:47:05.085Z,-4.64
2022-12-17T21:51:22.474Z,-4.72
2022-12-17T21:55:39.735Z,-4.82
2022-12-17T21:59:57.176Z,-4.75
2022-12-17T22:04:14.220Z,-4.83
2022-12-17T22:08:32.970Z,-4.82
2022-12-17T22:13:09.655Z,-4.89
2022-12-17T22:17:26.767Z,-4.99
2022-12-17T22:21:44.992Z,-5.06
2022-12-17T22:26:02.112Z,-5.05
2022-12-17T22:30:37.972Z,-5.06
2022-12-17T22:36:18.061Z,-5.09
2022-12-17T22:44:29.444Z,-5.05
2022-12-17T22:44:35.710Z,-5.16
2022-12-17T22:48:47.194Z,-5.15
2022-12-17T22:53:04.559Z,-5.00
2022-12-17T22:57:35.730Z,-4.97
2022-12-17T23:01:55.134Z,-5.00
2022-12-17T23:06:17.694Z,-4.93
2022-12-17T23:10:35.325Z,-4.95
2022-12-17T23:14:52.221Z,-5.12
2022-12-17T23:19:09.682Z,-5.13
2022-12-17T23:23:26.646Z,-5.03
2022-12-17T23:27:46.014Z,-5.09
2022-12-17T23:32:03.096Z,-5.01
2022-12-17T23:36:24.102Z,-5.07
2022-12-17T23:40:41.026Z,-5.07
2022-12-17T23:44:58.178Z,-4.95
2022-12-17T23:49:15.060Z,-5.01
2022-12-17T23:53:33.595Z,-4.96
2022-12-17T23:57:50.610Z,-4.92
